Time;durP1;ratioP1;P1;durP2;ratioP2;P2;SDS_P1;SDS_P2;PMS_P1;PMS_P2;Temp;Humidity;BMP_temperature;BMP_pressure;BME280_temperature;BME280_humidity;BME280_pressure;Samples;Min_cycle;Max_cycle;Signal;HPM_P1;HPM_P2
2022/07/29 00:01:32;;;;;;;2.95;2.25;;;19.60;99.90;;;;;;5220389;28;20241;-61
2022/07/29 00:04:04;;;;;;;3.72;2.40;;;19.60;99.90;;;;;;5237209;28;20253;-60
2022/07/29 00:06:37;;;;;;;2.83;2.25;;;19.50;99.90;;;;;;5242354;28;20305;-60
2022/07/29 00:09:11;;;;;;;2.25;1.98;;;19.50;99.90;;;;;;5216197;28;20067;-60
2022/07/29 00:11:47;;;;;;;3.15;2.38;;;19.40;99.90;;;;;;5214122;28;20035;-60
2022/07/29 00:14:18;;;;;;;2.60;2.40;;;19.40;99.90;;;;;;5228830;28;20044;-60
2022/07/29 00:16:49;;;;;;;4.50;2.53;;;19.40;99.90;;;;;;5214455;28;20066;-60
2022/07/29 00:19:23;;;;;;;5.82;2.83;;;19.40;99.90;;;;;;5215696;28;20024;-60
2022/07/29 00:22:00;;;;;;;2.88;2.33;;;19.40;99.90;;;;;;5214341;28;20031;-60
2022/07/29 00:24:36;;;;;;;2.88;2.28;;;19.30;99.90;;;;;;5212445;28;20035;-60
2022/07/29 00:27:10;;;;;;;4.22;2.28;;;19.20;99.90;;;;;;5215050;28;20317;-60
2022/07/29 00:29:44;;;;;;;3.53;2.27;;;19.20;99.90;;;;;;5213859;28;20025;-61
2022/07/29 00:32:16;;;;;;;3.33;2.75;;;19.20;99.90;;;;;;5209698;28;20033;-59
2022/07/29 00:37:37;;;;;;;3.60;1.77;;;19.10;99.90;;;;;;5194869;28;20031;-61
2022/07/29 00:40:11;;;;;;;2.10;1.90;;;19.10;99.90;;;;;;5210157;28;20013;-60
2022/07/29 00:42:51;;;;;;;2.20;2.00;;;19.00;99.90;;;;;;5210206;28;20033;-60
2022/07/29 00:45:22;;;;;;;4.13;2.35;;;18.90;99.90;;;;;;5213626;28;20560;-61
2022/07/29 00:47:56;;;;;;;2.55;2.35;;;18.90;99.90;;;;;;5213799;28;20067;-60
2022/07/29 00:50:30;;;;;;;2.47;2.28;;;18.90;99.90;;;;;;5214190;28;20340;-60
2022/07/29 00:53:03;;;;;;;3.17;2.78;;;18.80;99.90;;;;;;5210906;28;20029;-60
2022/07/29 00:55:35;;;;;;;2.00;1.85;;;18.80;99.90;;;;;;5212307;28;20029;-60
2022/07/29 00:58:06;;;;;;;3.95;2.33;;;18.80;99.90;;;;;;5212173;28;20230;-60
2022/07/29 01:00:40;;;;;;;4.22;2.30;;;18.80;99.90;;;;;;5217560;28;20027;-61
2022/07/29 01:03:12;;;;;;;3.33;2.80;;;18.80;99.90;;;;;;5236357;28;20248;-61
2022/07/29 01:05:45;;;;;;;2.53;2.20;;;18.80;99.90;;;;;;5240557;28;20278;-59
2022/07/29 01:08:17;;;;;;;3.13;2.25;;;18.80;99.90;;;;;;5219027;28;20031;-60
2022/07/29 01:10:50;;;;;;;3.40;2.20;;;18.70;99.90;;;;;;5216218;28;20029;-60
2022/07/29 01:13:24;;;;;;;3.13;2.83;;;18.70;99.90;;;;;;5217901;28;20041;-59
2022/07/29 01:16:02;;;;;;;3.03;2.50;;;18.60;99.90;;;;;;5217722;28;20188;-60
2022/07/29 01:18:44;;;;;;;2.40;2.17;;;18.60;99.90;;;;;;5217992;28;20268;-61
2022/07/29 01:21:47;;;;;;;2.50;2.30;;;18.50;99.90;;;;;;5217838;28;20021;-59
2022/07/29 01:24:40;;;;;;;3.17;2.78;;;18.50;99.90;;;;;;5232247;28;20033;-60
2022/07/29 01:27:36;;;;;;;3.45;2.08;;;18.50;99.90;;;;;;5216129;28;20294;-60
2022/07/29 01:30:08;;;;;;;2.58;2.38;;;18.50;99.90;;;;;;5217755;28;20020;-60
2022/07/29 01:32:42;;;;;;;3.08;2.35;;;18.50;99.90;;;;;;5217441;28;20043;-61
2022/07/29 01:35:40;;;;;;;3.47;2.42;;;18.40;99.90;;;;;;5215139;28;20025;-60
2022/07/29 01:38:17;;;;;;;3.45;2.60;;;18.40;99.90;;;;;;5216162;28;20021;-61
2022/07/29 01:41:14;;;;;;;4.38;2.75;;;18.40;99.90;;;;;;5216201;28;20029;-60
2022/07/29 01:44:04;;;;;;;3.45;2.65;;;18.30;99.90;;;;;;5215844;28;20202;-60
2022/07/29 01:46:39;;;;;;;3.05;2.40;;;18.30;99.90;;;;;;5231836;28;20032;-61
2022/07/29 01:49:25;;;;;;;2.55;2.28;;;18.30;99.90;;;;;;5216166;28;20029;-60
2022/07/29 01:52:05;;;;;;;5.78;2.90;;;18.20;99.90;;;;;;5214645;28;20137;-60
2022/07/29 01:54:45;;;;;;;3.00;2.47;;;18.20;99.90;;;;;;5194486;28;20051;-61
2022/07/29 01:57:18;;;;;;;2.80;2.08;;;18.10;99.90;;;;;;5209838;28;20245;-60
2022/07/29 01:59:53;;;;;;;6.10;2.67;;;18.10;99.90;;;;;;5216100;28;20378;-60
2022/07/29 02:02:28;;;;;;;2.65;2.45;;;18.00;99.90;;;;;;5229792;28;20034;-61
2022/07/29 02:05:02;;;;;;;4.18;2.85;;;18.00;99.90;;;;;;5242636;28;20040;-59
2022/07/29 02:07:34;;;;;;;3.10;2.42;;;17.90;99.90;;;;;;5224568;28;20027;-61
2022/07/29 02:10:12;;;;;;;2.63;2.42;;;17.90;99.90;;;;;;5215051;28;20348;-61
2022/07/29 02:12:46;;;;;;;3.92;2.50;;;17.90;99.90;;;;;;5213211;28;20223;-60
2022/07/29 02:15:18;;;;;;;3.60;2.40;;;17.90;99.90;;;;;;5216001;28;20037;-61
2022/07/29 02:17:56;;;;;;;3.80;2.67;;;17.90;99.90;;;;;;5216753;28;20029;-61
2022/07/29 02:20:28;;;;;;;4.65;3.00;;;17.90;99.90;;;;;;5216304;28;20091;-60
2022/07/29 02:23:02;;;;;;;3.15;2.72;;;17.90;99.90;;;;;;5215005;28;20039;-60
2022/07/29 02:25:34;;;;;;;4.22;2.50;;;17.90;99.90;;;;;;5216689;28;20025;-61
2022/07/29 02:28:08;;;;;;;3.80;2.70;;;17.90;99.90;;;;;;5214823;28;20028;-60
2022/07/29 02:30:44;;;;;;;5.72;2.35;;;17.90;99.90;;;;;;5216786;28;20213;-59
2022/07/29 02:33:23;;;;;;;3.17;2.63;;;17.90;99.90;;;;;;5215758;28;20040;-58
2022/07/29 02:36:01;;;;;;;2.75;2.40;;;17.90;99.90;;;;;;5215919;28;20091;-61
2022/07/29 02:38:53;;;;;;;4.75;2.35;;;17.80;99.90;;;;;;5216396;28;20033;-60
2022/07/29 02:41:28;;;;;;;4.85;2.92;;;17.80;99.90;;;;;;5215822;28;20017;-60
2022/07/29 02:44:10;;;;;;;2.97;2.42;;;17.80;99.90;;;;;;5210247;28;20030;-60
2022/07/29 02:46:55;;;;;;;2.97;2.65;;;17.80;99.90;;;;;;5196123;28;20013;-59
2022/07/29 02:49:39;;;;;;;3.65;2.58;;;17.80;99.90;;;;;;5195762;28;20047;-59
2022/07/29 02:52:18;;;;;;;4.13;3.03;;;17.80;99.90;;;;;;5216134;28;20322;-60
2022/07/29 02:55:20;;;;;;;3.28;2.83;;;17.70;99.90;;;;;;5221388;28;20355;-60
2022/07/29 02:58:00;;;;;;;3.00;2.70;;;17.70;99.90;;;;;;5226698;28;20206;-60
2022/07/29 03:00:37;;;;;;;2.78;2.47;;;17.60;99.90;;;;;;5214814;28;20017;-60
2022/07/29 03:03:12;;;;;;;4.05;2.80;;;17.70;99.90;;;;;;5219542;28;20154;-60
2022/07/29 03:05:44;;;;;;;5.63;3.13;;;17.60;99.90;;;;;;5216394;28;20067;-60
2022/07/29 03:08:21;;;;;;;3.22;2.78;;;17.60;99.90;;;;;;5213644;28;20025;-62
2022/07/29 03:10:56;;;;;;;2.55;2.30;;;17.50;99.90;;;;;;5231504;28;20031;-62
2022/07/29 03:13:33;;;;;;;3.42;2.83;;;17.40;99.90;;;;;;5214783;28;20206;-59
2022/07/29 03:16:05;;;;;;;2.92;2.60;;;17.40;99.90;;;;;;5215908;28;20033;-60
2022/07/29 03:18:37;;;;;;;3.88;3.15;;;17.40;99.90;;;;;;5215315;28;20298;-61
2022/07/29 03:21:09;;;;;;;3.22;2.65;;;17.30;99.90;;;;;;5196861;28;20206;-60
2022/07/29 03:23:49;;;;;;;3.10;2.53;;;17.30;99.90;;;;;;5215395;28;20031;-60
2022/07/29 03:26:21;;;;;;;3.50;3.03;;;17.30;99.90;;;;;;5230676;28;20139;-59
2022/07/29 03:28:54;;;;;;;3.72;3.15;;;17.30;99.90;;;;;;5231215;28;20039;-60
2022/07/29 03:31:31;;;;;;;4.80;3.22;;;17.40;99.90;;;;;;5217177;28;20310;-60
2022/07/29 03:34:04;;;;;;;4.65;3.08;;;17.50;99.90;;;;;;5206737;28;20033;-59
2022/07/29 03:36:37;;;;;;;4.07;3.03;;;17.50;99.90;;;;;;5211348;28;20029;-59
2022/07/29 03:39:13;;;;;;;4.50;2.70;;;17.60;99.90;;;;;;5215862;28;20298;-60
2022/07/29 03:41:51;;;;;;;3.15;2.67;;;17.60;99.90;;;;;;5215498;28;20234;-59
2022/07/29 03:44:25;;;;;;;4.05;2.72;;;17.60;99.90;;;;;;5214448;28;20032;-60
2022/07/29 03:47:01;;;;;;;4.45;3.20;;;17.60;99.90;;;;;;5196655;28;20029;-60
2022/07/29 03:49:38;;;;;;;4.88;3.00;;;17.70;99.90;;;;;;5214894;28;20195;-59
2022/07/29 03:52:09;;;;;;;4.85;3.20;;;17.70;99.90;;;;;;5213483;28;20043;-60
2022/07/29 03:54:46;;;;;;;7.20;3.17;;;17.70;99.90;;;;;;5214229;28;20051;-60
2022/07/29 03:57:20;;;;;;;3.58;2.83;;;17.70;99.90;;;;;;5192060;28;20036;-62
2022/07/29 03:59:54;;;;;;;3.58;3.10;;;17.70;99.90;;;;;;5193104;28;20318;-61
2022/07/29 04:02:29;;;;;;;4.55;2.88;;;17.70;99.90;;;;;;5215590;28;20031;-61
2022/07/29 04:05:08;;;;;;;5.10;3.60;;;17.60;99.90;;;;;;5209326;28;20699;-60
2022/07/29 04:07:42;;;;;;;3.28;2.97;;;17.70;99.90;;;;;;5221950;28;20321;-60
2022/07/29 04:10:18;;;;;;;5.13;3.10;;;17.70;99.90;;;;;;5214464;28;20039;-60
2022/07/29 04:12:52;;;;;;;4.05;3.10;;;17.80;99.90;;;;;;5213888;28;20028;-60
2022/07/29 04:15:28;;;;;;;7.75;3.10;;;17.90;99.90;;;;;;5213792;28;20021;-60
2022/07/29 04:18:01;;;;;;;2.97;2.60;;;18.10;99.90;;;;;;5214289;28;20265;-61
2022/07/29 04:20:33;;;;;;;2.85;2.55;;;18.20;99.90;;;;;;5213633;28;20021;-61
2022/07/29 04:23:07;;;;;;;3.63;2.67;;;18.50;99.90;;;;;;5214518;28;20029;-61
2022/07/29 04:25:44;;;;;;;3.83;2.63;;;18.70;99.90;;;;;;5213527;28;20029;-61
2022/07/29 04:28:15;;;;;;;7.00;2.92;;;18.90;99.90;;;;;;5213073;28;20299;-62
2022/07/29 04:30:49;;;;;;;3.75;2.60;;;19.10;99.90;;;;;;5212154;28;20299;-61
2022/07/29 04:33:20;;;;;;;4.05;3.35;;;19.40;99.90;;;;;;5214434;28;20361;-61
2022/07/29 04:35:52;;;;;;;2.65;2.40;;;19.70;99.90;;;;;;5217667;28;20029;-61
2022/07/29 04:38:23;;;;;;;2.80;2.60;;;19.80;99.90;;;;;;5218117;28;20035;-61
2022/07/29 04:40:54;;;;;;;4.88;2.80;;;20.00;99.90;;;;;;5217195;28;20033;-61
2022/07/29 04:43:27;;;;;;;3.97;2.63;;;20.20;99.90;;;;;;5218857;28;20027;-61
2022/07/29 04:45:59;;;;;;;2.40;2.20;;;20.50;99.90;;;;;;5212449;28;20326;-62
2022/07/29 04:48:36;;;;;;;4.38;2.53;;;20.70;99.90;;;;;;5199830;28;20154;-63
2022/07/29 04:51:12;;;;;;;3.95;3.03;;;21.00;99.90;;;;;;5215550;28;20032;-62
2022/07/29 04:53:46;;;;;;;2.83;2.40;;;21.10;99.90;;;;;;5232543;28;20215;-61
2022/07/29 04:56:20;;;;;;;3.13;2.83;;;21.20;99.90;;;;;;5216980;28;20017;-61
2022/07/29 04:58:55;;;;;;;2.67;2.47;;;21.50;99.90;;;;;;5215821;28;20024;-61
2022/07/29 05:01:26;;;;;;;4.20;2.53;;;21.70;99.90;;;;;;5231230;28;20023;-61
2022/07/29 05:03:57;;;;;;;2.88;2.47;;;22.00;99.90;;;;;;5216406;28;20029;-61
2022/07/29 05:06:31;;;;;;;3.03;2.53;;;21.70;99.90;;;;;;5222358;28;20207;-62
2022/07/29 05:09:11;;;;;;;3.17;2.70;;;21.30;99.90;;;;;;5217403;28;20324;-61
2022/07/29 05:11:42;;;;;;;3.42;2.75;;;21.10;99.90;;;;;;5217342;28;20043;-61
2022/07/29 05:14:14;;;;;;;2.95;2.45;;;21.00;99.90;;;;;;5215988;28;20035;-61
2022/07/29 05:16:45;;;;;;;6.80;2.50;;;21.00;99.90;;;;;;5217242;28;20047;-60
2022/07/29 05:19:17;;;;;;;2.55;2.13;;;21.20;99.90;;;;;;5216777;28;20063;-60
2022/07/29 05:21:49;;;;;;;3.42;2.83;;;21.30;99.90;;;;;;5217588;28;20201;-61
2022/07/29 05:24:27;;;;;;;4.82;2.63;;;21.60;99.90;;;;;;5215848;28;20330;-61
2022/07/29 05:27:00;;;;;;;2.92;2.55;;;22.00;99.90;;;;;;5229824;28;20439;-61
2022/07/29 05:29:32;;;;;;;2.55;2.30;;;22.10;99.90;;;;;;5215139;28;20024;-61
2022/07/29 05:32:06;;;;;;;4.22;3.17;;;22.50;99.90;;;;;;5216934;28;20048;-61
2022/07/29 05:34:38;;;;;;;2.53;2.33;;;23.00;99.90;;;;;;5217070;28;20338;-61
2022/07/29 05:37:14;;;;;;;4.70;2.90;;;23.20;99.90;;;;;;5216755;28;20202;-61
2022/07/29 05:39:46;;;;;;;4.40;2.80;;;23.60;99.90;;;;;;5216564;28;20047;-61
2022/07/29 05:42:19;;;;;;;3.97;2.63;;;23.70;99.90;;;;;;5216554;28;20426;-61
2022/07/29 05:44:51;;;;;;;4.00;2.30;;;23.90;99.90;;;;;;5231026;28;20226;-61
2022/07/29 05:47:23;;;;;;;2.25;2.05;;;23.80;99.90;;;;;;5216706;28;20020;-61
2022/07/29 05:49:54;;;;;;;2.67;2.17;;;24.20;99.90;;;;;;5216771;28;20016;-61
2022/07/29 05:52:28;;;;;;;5.28;2.55;;;24.50;99.90;;;;;;5216390;28;20031;-61
2022/07/29 05:55:05;;;;;;;3.63;2.50;;;24.60;99.90;;;;;;5214959;28;20039;-61
2022/07/29 05:57:37;;;;;;;2.90;2.50;;;24.60;99.90;;;;;;5214928;28;20025;-61
2022/07/29 06:00:09;;;;;;;3.08;2.50;;;24.90;99.90;;;;;;5216765;28;20229;-62
2022/07/29 06:02:40;;;;;;;3.85;2.50;;;25.30;99.90;;;;;;5231367;28;20215;-62
2022/07/29 06:05:12;;;;;;;4.10;2.53;;;25.60;99.90;;;;;;5229235;28;20043;-62
2022/07/29 06:07:46;;;;;;;2.65;2.42;;;25.50;99.90;;;;;;5230696;28;20033;-61
2022/07/29 06:10:17;;;;;;;2.67;2.47;;;25.80;99.90;;;;;;5216417;28;20270;-61
2022/07/29 06:12:50;;;;;;;4.03;2.40;;;25.30;99.90;;;;;;5216311;28;20037;-61
2022/07/29 06:15:26;;;;;;;2.92;2.13;;;25.50;99.90;;;;;;5216286;28;20063;-61
2022/07/29 06:18:00;;;;;;;3.50;2.53;;;25.70;99.90;;;;;;5216285;28;20322;-62
2022/07/29 06:20:31;;;;;;;;;;;25.00;99.90;;;;;;5217007;28;20039;-61
2022/07/29 06:23:04;;;;;;;4.88;2.85;;;24.60;99.90;;;;;;5216627;28;20118;-60
2022/07/29 06:25:41;;;;;;;3.72;2.42;;;24.50;99.90;;;;;;5231002;28;20401;-62
2022/07/29 06:28:14;;;;;;;2.72;2.50;;;24.60;99.90;;;;;;5217058;28;20013;-60
2022/07/29 06:30:45;;;;;;;2.15;1.90;;;24.60;99.90;;;;;;5217059;28;20025;-61
2022/07/29 06:33:21;;;;;;;2.28;1.98;;;24.80;99.90;;;;;;5216709;28;20276;-61
2022/07/29 06:35:52;;;;;;;3.58;2.60;;;24.40;99.90;;;;;;5215712;28;20055;-61
2022/07/29 06:38:26;;;;;;;4.10;2.28;;;24.60;99.90;;;;;;5216069;28;20193;-61
2022/07/29 06:41:00;;;;;;;3.00;2.53;;;24.80;99.90;;;;;;5216481;28;20044;-61
2022/07/29 06:43:41;;;;;;;2.70;2.30;;;24.70;99.90;;;;;;5215905;28;20100;-61
2022/07/29 06:46:14;;;;;;;3.15;2.45;;;24.40;99.90;;;;;;5217721;28;20017;-60
2022/07/29 06:48:47;;;;;;;2.90;2.10;;;24.70;99.90;;;;;;5215595;28;20139;-62
2022/07/29 06:51:21;;;;;;;2.42;2.17;;;25.10;99.90;;;;;;5214560;28;20221;-61
2022/07/29 06:53:52;;;;;;;2.85;2.00;;;25.40;99.90;;;;;;5215138;28;20070;-61
2022/07/29 06:56:33;;;;;;;5.53;2.55;;;25.70;99.90;;;;;;5213830;28;20031;-61
2022/07/29 06:59:08;;;;;;;3.03;2.38;;;26.00;99.90;;;;;;5217562;28;20016;-62
2022/07/29 07:01:44;;;;;;;2.60;2.20;;;26.10;99.90;;;;;;5224987;28;20217;-61
2022/07/29 07:04:15;;;;;;;2.78;2.42;;;26.20;99.90;;;;;;5209514;28;20028;-62
2022/07/29 07:06:49;;;;;;;3.00;2.70;;;26.60;99.90;;;;;;5236020;28;20023;-62
2022/07/29 07:09:23;;;;;;;3.08;2.63;;;26.60;99.90;;;;;;5216026;28;20337;-62
2022/07/29 07:11:54;;;;;;;;;;;26.40;99.90;;;;;;5217349;28;20335;-60
2022/07/29 07:14:27;;;;;;;4.82;2.20;;;26.80;99.90;;;;;;5198499;28;19915;-63
2022/07/29 07:17:00;;;;;;;2.92;2.60;;;26.80;99.90;;;;;;5217089;28;20025;-63
2022/07/29 07:19:33;;;;;;;4.38;2.47;;;26.60;99.90;;;;;;5214916;28;20021;-61
2022/07/29 07:22:04;;;;;;;3.35;2.13;;;26.30;99.90;;;;;;5214529;28;20024;-60
2022/07/29 07:24:42;;;;;;;5.40;2.83;;;25.90;99.90;;;;;;5213074;28;20032;-60
2022/07/29 07:27:20;;;;;;;3.10;2.35;;;25.60;99.90;;;;;;5216966;28;20035;-61
2022/07/29 07:29:57;;;;;;;2.58;2.13;;;25.00;99.90;;;;;;5216894;28;20031;-61
2022/07/29 07:32:31;;;;;;;6.13;2.63;;;25.20;99.90;;;;;;5216975;28;20028;-63
2022/07/29 07:35:05;;;;;;;2.60;2.15;;;25.20;99.90;;;;;;5217154;28;20033;-62
2022/07/29 07:37:42;;;;;;;2.65;2.08;;;25.50;99.90;;;;;;5215446;28;20043;-63
2022/07/29 07:40:13;;;;;;;2.75;2.30;;;25.70;99.90;;;;;;5215419;28;20215;-62
2022/07/29 07:42:45;;;;;;;2.35;2.13;;;26.00;99.90;;;;;;5216823;28;20333;-62
2022/07/29 07:45:17;;;;;;;3.40;2.38;;;26.10;99.90;;;;;;5217495;28;20302;-62
2022/07/29 07:47:48;;;;;;;4.40;2.05;;;25.80;99.90;;;;;;5216071;28;20505;-61
2022/07/29 07:50:19;;;;;;;3.72;2.40;;;26.00;99.90;;;;;;5216327;28;20032;-62
2022/07/29 07:52:52;;;;;;;3.78;2.70;;;27.00;99.90;;;;;;5216432;28;20228;-62
2022/07/29 07:55:28;;;;;;;2.47;2.15;;;27.00;99.90;;;;;;5216564;28;20033;-61
2022/07/29 07:57:59;;;;;;;3.40;2.10;;;26.90;99.90;;;;;;5216050;28;20193;-61
2022/07/29 08:00:32;;;;;;;2.53;2.25;;;27.00;99.90;;;;;;5215804;28;20222;-61
2022/07/29 08:03:06;;;;;;;3.35;2.28;;;28.20;99.90;;;;;;5215239;28;20060;-63
2022/07/29 08:05:40;;;;;;;2.50;2.17;;;28.60;99.90;;;;;;5217635;28;20048;-61
2022/07/29 08:08:11;;;;;;;2.50;2.13;;;28.50;99.90;;;;;;5197703;28;20037;-63
2022/07/29 08:10:55;;;;;;;2.83;2.33;;;28.60;99.90;;;;;;5231402;28;20025;-61
2022/07/29 08:13:28;;;;;;;3.42;2.28;;;29.00;99.90;;;;;;5206358;28;20028;-62
2022/07/29 08:16:11;;;;;;;2.45;2.10;;;28.30;99.90;;;;;;5216169;28;20055;-62
2022/07/29 08:18:46;;;;;;;4.90;2.58;;;27.30;99.90;;;;;;5215194;28;20041;-61
2022/07/29 08:21:18;;;;;;;3.92;2.85;;;26.90;99.90;;;;;;5214989;28;20201;-60
2022/07/29 08:24:42;;;;;;;3.00;2.70;;;26.60;99.90;;;;;;5201223;28;20025;-62
2022/07/29 08:26:48;;;;;;;3.38;2.50;;;26.60;99.90;;;;;;5214962;28;20029;-61
2022/07/29 08:29:19;;;;;;;2.22;2.03;;;26.70;99.90;;;;;;5215299;28;20211;-59
2022/07/29 08:31:51;;;;;;;2.65;2.30;;;27.00;99.90;;;;;;5215594;28;20198;-62
2022/07/29 08:34:28;;;;;;;4.15;2.35;;;26.40;99.90;;;;;;5216424;28;20025;-61
2022/07/29 08:36:59;;;;;;;3.10;2.25;;;26.30;99.90;;;;;;5216031;28;20187;-62
2022/07/29 08:39:30;;;;;;;2.20;2.00;;;26.60;99.90;;;;;;5215557;28;20017;-61
2022/07/29 08:42:02;;;;;;;2.92;2.35;;;26.80;99.90;;;;;;5216264;28;20051;-61
2022/07/29 08:44:33;;;;;;;2.40;2.00;;;26.90;99.90;;;;;;5197566;28;20035;-62
2022/07/29 08:47:05;;;;;;;4.22;2.20;;;27.10;99.90;;;;;;5199752;28;20051;-60
2022/07/29 08:49:37;;;;;;;2.55;2.28;;;27.20;99.90;;;;;;5195660;28;20036;-61
2022/07/29 08:52:15;;;;;;;3.38;2.55;;;27.60;99.90;;;;;;5214611;28;20028;-61
2022/07/29 08:54:48;;;;;;;2.80;2.00;;;27.50;99.90;;;;;;5197183;28;20033;-61
2022/07/29 08:57:23;;;;;;;2.55;2.10;;;28.20;99.90;;;;;;5233225;28;21000;-61
2022/07/29 08:59:56;;;;;;;3.00;2.70;;;28.40;99.90;;;;;;5237006;28;20032;-63
2022/07/29 09:02:36;;;;;;;2.38;2.08;;;29.40;99.90;;;;;;5220078;28;20021;-62
2022/07/29 09:05:10;;;;;;;2.53;2.33;;;29.60;99.90;;;;;;5216467;28;20029;-61
2022/07/29 09:07:47;;;;;;;2.22;1.95;;;29.20;99.90;;;;;;5204960;28;20045;-62
2022/07/29 09:10:21;;;;;;;2.40;2.20;;;29.70;99.90;;;;;;5200660;28;20025;-63
2022/07/29 09:12:54;;;;;;;3.83;2.08;;;29.10;99.90;;;;;;5200781;28;20303;-62
2022/07/29 09:15:28;;;;;;;2.78;1.95;;;28.60;99.90;;;;;;5216367;28;20021;-63
2022/07/29 09:18:00;;;;;;;2.30;1.98;;;29.10;99.90;;;;;;5214979;28;20024;-61
2022/07/29 09:23:23;;;;;;;3.13;2.05;;;29.10;99.90;;;;;;5219507;28;20321;-61
2022/07/29 09:25:57;;;;;;;3.35;2.40;;;29.10;99.90;;;;;;5218794;28;20228;-61
2022/07/29 09:28:31;;;;;;;2.00;1.80;;;29.50;99.90;;;;;;5201015;28;20031;-61
2022/07/29 09:31:02;;;;;;;2.22;2.03;;;30.60;99.90;;;;;;5218660;28;20036;-61
2022/07/29 09:33:35;;;;;;;1.85;1.70;;;30.30;99.90;;;;;;5218279;28;20032;-62
2022/07/29 09:36:11;;;;;;;2.97;2.10;;;30.00;99.90;;;;;;5200395;28;20238;-61
2022/07/29 09:38:56;;;;;;;3.30;2.25;;;29.90;99.90;;;;;;5218806;28;20210;-60
2022/07/29 09:41:28;;;;;;;1.73;1.63;;;29.80;99.90;;;;;;5217347;28;20033;-62
2022/07/29 09:44:01;;;;;;;2.53;1.90;;;29.90;99.90;;;;;;5203469;28;20048;-62
2022/07/29 09:46:32;;;;;;;2.03;1.80;;;29.60;99.90;;;;;;5217354;28;20047;-62
2022/07/29 09:49:14;;;;;;;2.30;2.08;;;28.90;99.90;;;;;;5218294;28;20021;-62
2022/07/29 09:51:46;;;;;;;2.83;2.25;;;29.10;99.90;;;;;;5200374;28;20162;-61
2022/07/29 09:54:34;;;;;;;2.25;2.00;;;30.00;99.90;;;;;;5200384;28;20318;-62
2022/07/29 09:57:12;;;;;;;2.63;1.90;;;31.40;99.90;;;;;;5217608;28;20047;-61
2022/07/29 10:00:05;;;;;;;1.70;1.60;;;32.20;99.90;;;;;;5226947;28;20024;-63
2022/07/29 10:02:39;;;;;;;2.67;1.77;;;33.20;99.90;;;;;;5211413;28;20234;-61
2022/07/29 10:05:33;;;;;;;2.08;1.88;;;34.00;99.90;;;;;;5228062;28;20062;-62
2022/07/29 10:08:08;;;;;;;3.53;2.17;;;34.80;99.90;;;;;;5222358;28;20466;-62
2022/07/29 10:10:43;;;;;;;2.10;1.83;;;34.60;99.90;;;;;;5200752;28;20359;-61
2022/07/29 10:13:17;;;;;;;2.15;1.98;;;34.60;99.90;;;;;;5222843;28;20032;-64
2022/07/29 10:15:50;;;;;;;2.50;2.03;;;35.00;99.90;;;;;;5202105;28;20039;-62
2022/07/29 10:18:24;;;;;;;2.53;1.98;;;34.90;99.90;;;;;;5218381;28;20016;-62
2022/07/29 10:21:00;;;;;;;;;;;34.00;99.90;;;;;;5218205;28;20049;-63
2022/07/29 10:23:33;;;;;;;2.85;2.17;;;33.50;99.90;;;;;;5221348;28;20378;-62
2022/07/29 10:26:07;;;;;;;2.63;1.95;;;34.00;99.90;;;;;;5219332;28;20016;-61
2022/07/29 10:28:41;;;;;;;2.75;2.15;;;33.10;99.90;;;;;;5200832;28;20043;-61
2022/07/29 10:31:26;;;;;;;2.35;2.10;;;32.70;99.90;;;;;;5202757;28;20039;-66
2022/07/29 10:34:28;;;;;;;3.17;2.20;;;32.20;99.90;;;;;;5223394;28;20032;-62
2022/07/29 10:37:24;;;;;;;2.17;1.98;;;32.10;99.90;;;;;;5184596;28;20075;-62
2022/07/29 10:41:26;;;;;;;2.70;1.95;;;32.90;99.90;;;;;;5200213;28;20037;-62
2022/07/29 10:43:05;;;;;;;2.03;1.80;;;33.00;99.90;;;;;;5210782;28;20033;-61
2022/07/29 10:45:39;;;;;;;3.45;2.30;;;33.30;99.90;;;;;;5200514;28;20091;-62
2022/07/29 10:48:10;;;;;;;2.80;2.10;;;33.40;99.90;;;;;;5214918;28;20028;-62
2022/07/29 10:51:03;;;;;;;2.42;2.22;;;32.60;99.90;;;;;;5184089;28;20033;-63
2022/07/29 10:53:52;;;;;;;3.00;2.58;;;32.20;99.90;;;;;;5200454;28;20021;-62
2022/07/29 10:56:30;;;;;;;3.88;2.35;;;32.50;99.90;;;;;;5218444;28;20398;-62
2022/07/29 10:59:20;;;;;;;4.13;2.60;;;33.30;99.90;;;;;;5200206;28;20029;-62
2022/07/29 11:01:54;;;;;;;2.55;2.35;;;33.00;99.90;;;;;;5200424;28;20532;-61
2022/07/29 11:04:47;;;;;;;3.50;2.42;;;32.40;99.90;;;;;;5207744;28;20223;-63
2022/07/29 11:07:18;;;;;;;2.45;2.17;;;32.00;99.90;;;;;;5200563;28;20024;-62
2022/07/29 11:10:11;;;;;;;3.30;2.67;;;32.60;99.90;;;;;;5217994;28;20021;-62
2022/07/29 11:12:47;;;;;;;2.85;2.45;;;32.80;99.90;;;;;;5218210;28;20252;-62
2022/07/29 11:15:23;;;;;;;2.45;2.25;;;32.20;99.90;;;;;;5198750;28;20711;-63
2022/07/29 11:17:56;;;;;;;2.25;1.90;;;30.90;99.90;;;;;;5215017;28;20334;-60
2022/07/29 11:20:42;;;;;;;2.55;2.35;;;30.40;99.90;;;;;;5216444;28;20021;-61
2022/07/29 11:23:39;;;;;;;2.72;2.33;;;31.00;99.90;;;;;;5217497;28;20031;-61
2022/07/29 11:26:24;;;;;;;4.13;2.20;;;31.90;99.90;;;;;;5192288;28;20028;-60
2022/07/29 11:28:59;;;;;;;4.18;2.15;;;32.00;99.90;;;;;;5199725;28;20025;-62
2022/07/29 11:31:39;;;;;;;2.67;2.30;;;31.40;99.90;;;;;;5217195;28;20032;-61
2022/07/29 11:34:20;;;;;;;3.13;2.42;;;30.90;99.90;;;;;;5161763;28;20029;-62
2022/07/29 11:37:10;;;;;;;2.50;2.05;;;31.10;99.90;;;;;;5196609;28;20040;-61
2022/07/29 11:39:42;;;;;;;2.10;1.90;;;32.30;99.90;;;;;;5197255;28;20311;-62
2022/07/29 11:42:25;;;;;;;2.03;1.83;;;33.90;99.90;;;;;;5216102;28;20013;-62
2022/07/29 11:45:05;;;;;;;2.30;2.10;;;34.60;99.90;;;;;;5199340;28;20035;-62
2022/07/29 11:47:42;;;;;;;2.55;2.35;;;34.70;99.90;;;;;;5201797;28;20328;-62
2022/07/29 11:50:17;;;;;;;3.45;2.42;;;34.20;99.90;;;;;;5217449;28;20025;-61
2022/07/29 11:52:50;;;;;;;2.65;2.40;;;34.70;99.90;;;;;;5183153;28;20025;-62
2022/07/29 11:55:24;;;;;;;3.22;2.28;;;33.90;99.90;;;;;;5216626;28;20035;-64
2022/07/29 11:58:01;;;;;;;7.20;2.37;;;34.00;99.90;;;;;;5199242;28;20032;-62
2022/07/29 12:00:42;;;;;;;2.40;2.17;;;34.80;99.90;;;;;;5216642;28;20021;-64
2022/07/29 12:03:26;;;;;;;2.40;2.20;;;36.80;99.90;;;;;;5227524;28;20328;-61
2022/07/29 12:05:58;;;;;;;3.00;2.42;;;37.40;99.90;;;;;;5207178;28;20062;-61
2022/07/29 12:08:45;;;;;;;3.03;2.28;;;36.40;99.90;;;;;;5217941;28;20024;-61
2022/07/29 12:11:18;;;;;;;2.58;2.25;;;37.50;99.90;;;;;;5201153;28;20051;-61
2022/07/29 12:13:50;;;;;;;3.30;3.00;;;38.00;99.90;;;;;;5222360;28;20040;-61
2022/07/29 12:16:22;;;;;;;2.38;2.17;;;37.90;99.90;;;;;;5200628;28;20025;-62
2022/07/29 12:18:58;;;;;;;7.47;2.50;;;37.70;99.90;;;;;;5232469;28;20025;-61
2022/07/29 12:21:52;;;;;;;2.88;2.60;;;36.50;99.90;;;;;;5219008;28;20032;-62
2022/07/29 12:24:23;;;;;;;4.60;2.58;;;34.60;99.90;;;;;;5238488;28;20020;-61
2022/07/29 12:27:00;;;;;;;3.15;1.98;;;33.50;99.90;;;;;;5237800;28;20324;-62
2022/07/29 12:29:31;;;;;;;2.45;2.25;;;32.70;99.90;;;;;;5233801;28;20066;-63
2022/07/29 12:32:06;;;;;;;3.78;2.30;;;33.40;99.90;;;;;;5217107;28;20017;-62
2022/07/29 12:34:37;;;;;;;2.65;2.30;;;33.60;99.90;;;;;;5198058;28;20374;-63
2022/07/29 12:37:11;;;;;;;3.13;2.33;;;34.00;99.90;;;;;;5215083;28;20237;-62
2022/07/29 12:39:43;;;;;;;;;;;35.30;99.90;;;;;;5215032;28;20475;-62
2022/07/29 12:42:17;;;;;;;2.80;2.58;;;35.10;99.90;;;;;;5214916;28;19907;-62
2022/07/29 12:44:55;;;;;;;2.88;2.40;;;34.50;99.90;;;;;;5215359;28;20043;-62
2022/07/29 12:47:26;;;;;;;2.80;2.20;;;32.90;99.90;;;;;;5216248;28;20021;-60
2022/07/29 12:50:14;;;;;;;3.45;2.50;;;32.70;99.90;;;;;;5226913;28;20337;-62
2022/07/29 12:52:47;;;;;;;2.55;2.28;;;32.10;99.90;;;;;;5235861;28;20038;-61
2022/07/29 12:55:48;;;;;;;4.35;2.67;;;32.10;99.90;;;;;;5219770;28;20033;-62
2022/07/29 12:58:46;;;;;;;3.80;2.30;;;32.30;99.90;;;;;;5222795;28;20023;-62
2022/07/29 13:01:20;;;;;;;3.00;2.70;;;32.20;99.90;;;;;;5210373;28;20033;-60
2022/07/29 13:04:00;;;;;;;2.58;2.38;;;31.90;99.90;;;;;;5219376;28;20043;-63
2022/07/29 13:06:31;;;;;;;2.47;2.13;;;31.20;99.90;;;;;;5207310;28;20045;-61
2022/07/29 13:09:15;;;;;;;4.57;2.22;;;30.00;99.90;;;;;;5223724;28;20214;-60
2022/07/29 13:11:49;;;;;;;2.55;2.17;;;28.90;99.90;;;;;;5216525;28;20179;-61
2022/07/29 13:14:36;;;;;;;2.97;2.67;;;28.30;99.90;;;;;;5200740;28;20393;-62
2022/07/29 13:17:20;;;;;;;2.80;2.40;;;27.80;99.90;;;;;;5192986;28;20162;-62
2022/07/29 13:19:53;;;;;;;4.47;2.85;;;27.60;99.90;;;;;;5218872;28;20450;-61
2022/07/29 13:22:29;;;;;;;2.80;2.50;;;27.40;99.90;;;;;;5218838;28;20037;-63
2022/07/29 13:25:02;;;;;;;3.20;2.17;;;27.00;99.90;;;;;;5199781;28;20032;-61
2022/07/29 13:27:36;;;;;;;3.58;2.55;;;26.70;99.90;;;;;;5218815;28;20009;-62
2022/07/29 13:30:09;;;;;;;2.53;2.33;;;26.60;99.90;;;;;;5218646;28;20305;-61
2022/07/29 13:32:40;;;;;;;2.42;2.22;;;26.40;99.90;;;;;;5218370;28;20028;-61
2022/07/29 13:35:13;;;;;;;4.40;2.10;;;26.10;99.90;;;;;;5202709;28;20287;-60
2022/07/29 13:37:48;;;;;;;4.88;2.65;;;25.80;99.90;;;;;;5218882;28;20258;-60
2022/07/29 13:40:21;;;;;;;3.63;2.50;;;25.50;99.90;;;;;;5200809;28;20278;-61